sensor_id;sensor_type;location;lat;lon;timestamp;P1;durP1;ratioP1;P2;durP2;ratioP2
66175;SDS011;52977;44.816;20.538;2023-05-10T00:01:12;32.63;;;14.57;;
66175;SDS011;52977;44.816;20.538;2023-05-10T00:03:38;31.20;;;14.98;;
66175;SDS011;52977;44.816;20.538;2023-05-10T00:06:04;25.77;;;13.50;;
66175;SDS011;52977;44.816;20.538;2023-05-10T00:08:30;24.48;;;12.48;;
66175;SDS011;52977;44.816;20.538;2023-05-10T00:10:57;21.45;;;10.73;;
66175;SDS011;52977;44.816;20.538;2023-05-10T00:13:23;17.55;;;10.07;;
66175;SDS011;52977;44.816;20.538;2023-05-10T00:15:49;16.92;;;9.13;;
66175;SDS011;52977;44.816;20.538;2023-05-10T00:18:16;14.95;;;8.48;;
66175;SDS011;52977;44.816;20.538;2023-05-10T00:20:42;15.80;;;8.48;;
66175;SDS011;52977;44.816;20.538;2023-05-10T00:23:08;14.63;;;7.68;;
66175;SDS011;52977;44.816;20.538;2023-05-10T00:25:34;14.65;;;7.32;;
66175;SDS011;52977;44.816;20.538;2023-05-10T00:27:59;13.65;;;7.05;;
66175;SDS011;52977;44.816;20.538;2023-05-10T00:30:26;13.05;;;6.95;;
66175;SDS011;52977;44.816;20.538;2023-05-10T00:32:52;10.45;;;5.80;;
66175;SDS011;52977;44.816;20.538;2023-05-10T00:35:17;12.55;;;6.00;;
66175;SDS011;52977;44.816;20.538;2023-05-10T00:37:43;11.70;;;5.78;;
66175;SDS011;52977;44.816;20.538;2023-05-10T00:40:09;11.57;;;5.57;;
66175;SDS011;52977;44.816;20.538;2023-05-10T00:42:35;11.15;;;5.40;;
66175;SDS011;52977;44.816;20.538;2023-05-10T00:45:01;11.52;;;5.68;;
66175;SDS011;52977;44.816;20.538;2023-05-10T00:47:27;12.50;;;6.50;;
66175;SDS011;52977;44.816;20.538;2023-05-10T00:49:55;13.35;;;5.85;;
66175;SDS011;52977;44.816;20.538;2023-05-10T00:52:21;10.18;;;5.18;;
66175;SDS011;52977;44.816;20.538;2023-05-10T00:54:50;12.95;;;6.03;;
66175;SDS011;52977;44.816;20.538;2023-05-10T00:57:17;13.80;;;5.82;;
66175;SDS011;52977;44.816;20.538;2023-05-10T00:59:44;12.68;;;5.95;;
66175;SDS011;52977;44.816;20.538;2023-05-10T01:02:10;13.18;;;6.20;;
66175;SDS011;52977;44.816;20.538;2023-05-10T01:04:36;12.93;;;5.40;;
66175;SDS011;52977;44.816;20.538;2023-05-10T01:07:03;15.15;;;5.80;;
66175;SDS011;52977;44.816;20.538;2023-05-10T01:09:29;17.38;;;7.18;;
66175;SDS011;52977;44.816;20.538;2023-05-10T01:11:56;13.98;;;6.70;;
66175;SDS011;52977;44.816;20.538;2023-05-10T01:14:22;19.45;;;6.97;;
66175;SDS011;52977;44.816;20.538;2023-05-10T01:16:49;11.50;;;5.93;;
66175;SDS011;52977;44.816;20.538;2023-05-10T01:19:19;11.23;;;5.65;;
66175;SDS011;52977;44.816;20.538;2023-05-10T01:24:38;12.55;;;5.18;;
66175;SDS011;52977;44.816;20.538;2023-05-10T01:32:47;12.45;;;5.38;;
66175;SDS011;52977;44.816;20.538;2023-05-10T01:38:41;8.63;;;4.75;;
66175;SDS011;52977;44.816;20.538;2023-05-10T01:46:37;8.75;;;4.80;;
66175;SDS011;52977;44.816;20.538;2023-05-10T01:49:10;8.95;;;4.40;;
66175;SDS011;52977;44.816;20.538;2023-05-10T01:51:47;8.68;;;4.70;;
66175;SDS011;52977;44.816;20.538;2023-05-10T01:54:19;10.00;;;4.40;;
66175;SDS011;52977;44.816;20.538;2023-05-10T01:56:47;9.15;;;4.18;;
66175;SDS011;52977;44.816;20.538;2023-05-10T01:59:21;7.15;;;4.15;;
66175;SDS011;52977;44.816;20.538;2023-05-10T02:01:53;9.55;;;4.50;;
66175;SDS011;52977;44.816;20.538;2023-05-10T02:04:20;8.50;;;3.97;;
66175;SDS011;52977;44.816;20.538;2023-05-10T02:06:49;11.00;;;5.00;;
66175;SDS011;52977;44.816;20.538;2023-05-10T02:09:17;9.10;;;4.85;;
66175;SDS011;52977;44.816;20.538;2023-05-10T02:11:45;11.93;;;4.50;;
66175;SDS011;52977;44.816;20.538;2023-05-10T02:14:14;8.18;;;4.50;;
66175;SDS011;52977;44.816;20.538;2023-05-10T02:16:41;8.63;;;4.15;;
66175;SDS011;52977;44.816;20.538;2023-05-10T02:19:08;10.13;;;4.88;;
66175;SDS011;52977;44.816;20.538;2023-05-10T02:21:37;9.10;;;4.93;;
66175;SDS011;52977;44.816;20.538;2023-05-10T02:24:05;9.88;;;4.95;;
66175;SDS011;52977;44.816;20.538;2023-05-10T02:26:32;12.02;;;4.97;;
66175;SDS011;52977;44.816;20.538;2023-05-10T02:29:01;10.77;;;5.30;;
66175;SDS011;52977;44.816;20.538;2023-05-10T02:31:29;8.27;;;4.50;;
66175;SDS011;52977;44.816;20.538;2023-05-10T02:33:57;8.43;;;4.90;;
66175;SDS011;52977;44.816;20.538;2023-05-10T02:36:24;10.07;;;4.55;;
66175;SDS011;52977;44.816;20.538;2023-05-10T02:38:50;10.57;;;4.97;;
66175;SDS011;52977;44.816;20.538;2023-05-10T02:41:18;10.23;;;5.15;;
66175;SDS011;52977;44.816;20.538;2023-05-10T02:43:47;9.32;;;4.45;;
66175;SDS011;52977;44.816;20.538;2023-05-10T02:46:17;8.52;;;4.28;;
66175;SDS011;52977;44.816;20.538;2023-05-10T02:48:43;9.45;;;4.30;;
66175;SDS011;52977;44.816;20.538;2023-05-10T02:51:09;9.50;;;4.40;;
66175;SDS011;52977;44.816;20.538;2023-05-10T02:53:40;9.15;;;4.47;;
66175;SDS011;52977;44.816;20.538;2023-05-10T02:56:11;8.23;;;4.38;;
66175;SDS011;52977;44.816;20.538;2023-05-10T02:58:41;8.43;;;4.35;;
66175;SDS011;52977;44.816;20.538;2023-05-10T03:01:07;7.93;;;3.97;;
66175;SDS011;52977;44.816;20.538;2023-05-10T03:03:33;10.48;;;4.40;;
66175;SDS011;52977;44.816;20.538;2023-05-10T03:05:59;8.77;;;4.35;;
66175;SDS011;52977;44.816;20.538;2023-05-10T03:08:26;9.88;;;4.22;;
66175;SDS011;52977;44.816;20.538;2023-05-10T03:11:43;9.57;;;4.85;;
66175;SDS011;52977;44.816;20.538;2023-05-10T03:16:45;8.98;;;4.50;;
66175;SDS011;52977;44.816;20.538;2023-05-10T03:19:22;7.43;;;4.32;;
66175;SDS011;52977;44.816;20.538;2023-05-10T03:21:53;10.75;;;4.80;;
66175;SDS011;52977;44.816;20.538;2023-05-10T03:26:55;8.07;;;4.70;;
66175;SDS011;52977;44.816;20.538;2023-05-10T03:29:25;10.02;;;4.53;;
66175;SDS011;52977;44.816;20.538;2023-05-10T03:31:52;6.88;;;4.30;;
66175;SDS011;52977;44.816;20.538;2023-05-10T03:34:23;7.60;;;4.10;;
66175;SDS011;52977;44.816;20.538;2023-05-10T03:36:50;7.28;;;4.30;;
66175;SDS011;52977;44.816;20.538;2023-05-10T03:39:16;6.82;;;4.00;;
66175;SDS011;52977;44.816;20.538;2023-05-10T03:41:46;8.45;;;4.63;;
66175;SDS011;52977;44.816;20.538;2023-05-10T03:44:12;8.82;;;4.82;;
66175;SDS011;52977;44.816;20.538;2023-05-10T03:46:39;6.95;;;4.38;;
66175;SDS011;52977;44.816;20.538;2023-05-10T03:49:05;9.98;;;4.95;;
66175;SDS011;52977;44.816;20.538;2023-05-10T03:51:31;9.27;;;4.70;;
66175;SDS011;52977;44.816;20.538;2023-05-10T03:53:58;7.03;;;4.22;;
66175;SDS011;52977;44.816;20.538;2023-05-10T03:56:24;8.95;;;4.82;;
66175;SDS011;52977;44.816;20.538;2023-05-10T03:58:50;10.18;;;4.32;;
66175;SDS011;52977;44.816;20.538;2023-05-10T04:01:17;7.80;;;4.63;;
66175;SDS011;52977;44.816;20.538;2023-05-10T04:03:43;9.63;;;5.15;;
66175;SDS011;52977;44.816;20.538;2023-05-10T04:06:11;10.43;;;5.07;;
66175;SDS011;52977;44.816;20.538;2023-05-10T04:08:37;9.38;;;4.80;;
66175;SDS011;52977;44.816;20.538;2023-05-10T04:13:33;9.10;;;4.38;;
66175;SDS011;52977;44.816;20.538;2023-05-10T04:15:59;8.88;;;4.38;;
66175;SDS011;52977;44.816;20.538;2023-05-10T04:18:24;9.00;;;5.05;;
66175;SDS011;52977;44.816;20.538;2023-05-10T04:20:51;8.20;;;4.63;;
66175;SDS011;52977;44.816;20.538;2023-05-10T04:23:17;11.30;;;5.13;;
66175;SDS011;52977;44.816;20.538;2023-05-10T04:25:43;11.13;;;5.47;;
66175;SDS011;52977;44.816;20.538;2023-05-10T04:28:09;11.63;;;5.47;;
66175;SDS011;52977;44.816;20.538;2023-05-10T04:30:36;13.02;;;5.53;;
66175;SDS011;52977;44.816;20.538;2023-05-10T04:33:02;11.57;;;6.10;;
66175;SDS011;52977;44.816;20.538;2023-05-10T04:35:28;9.60;;;5.93;;
66175;SDS011;52977;44.816;20.538;2023-05-10T04:37:54;13.57;;;6.30;;
66175;SDS011;52977;44.816;20.538;2023-05-10T04:40:20;11.10;;;6.00;;
66175;SDS011;52977;44.816;20.538;2023-05-10T04:42:47;13.00;;;6.47;;
66175;SDS011;52977;44.816;20.538;2023-05-10T04:45:12;14.52;;;6.57;;
66175;SDS011;52977;44.816;20.538;2023-05-10T04:47:40;9.98;;;5.60;;
66175;SDS011;52977;44.816;20.538;2023-05-10T04:50:07;9.95;;;5.70;;
66175;SDS011;52977;44.816;20.538;2023-05-10T04:52:33;10.25;;;5.93;;
66175;SDS011;52977;44.816;20.538;2023-05-10T04:54:59;14.27;;;6.82;;
66175;SDS011;52977;44.816;20.538;2023-05-10T04:57:25;11.65;;;6.47;;
66175;SDS011;52977;44.816;20.538;2023-05-10T04:59:52;11.75;;;6.63;;
66175;SDS011;52977;44.816;20.538;2023-05-10T05:02:18;11.43;;;6.40;;
66175;SDS011;52977;44.816;20.538;2023-05-10T05:04:44;12.85;;;6.30;;
66175;SDS011;52977;44.816;20.538;2023-05-10T05:07:11;11.02;;;6.07;;
66175;SDS011;52977;44.816;20.538;2023-05-10T05:09:37;10.82;;;5.78;;
66175;SDS011;52977;44.816;20.538;2023-05-10T05:12:04;13.68;;;5.93;;
66175;SDS011;52977;44.816;20.538;2023-05-10T05:14:31;11.45;;;6.00;;
66175;SDS011;52977;44.816;20.538;2023-05-10T05:16:57;12.73;;;6.20;;
66175;SDS011;52977;44.816;20.538;2023-05-10T05:19:23;14.00;;;6.70;;
66175;SDS011;52977;44.816;20.538;2023-05-10T05:21:49;10.30;;;5.88;;
66175;SDS011;52977;44.816;20.538;2023-05-10T05:24:16;11.35;;;6.45;;
66175;SDS011;52977;44.816;20.538;2023-05-10T05:26:42;14.63;;;6.20;;
66175;SDS011;52977;44.816;20.538;2023-05-10T05:29:08;10.85;;;6.00;;
66175;SDS011;52977;44.816;20.538;2023-05-10T05:31:34;11.65;;;6.13;;
66175;SDS011;52977;44.816;20.538;2023-05-10T05:34:01;13.18;;;7.20;;
66175;SDS011;52977;44.816;20.538;2023-05-10T05:36:27;13.93;;;6.43;;
66175;SDS011;52977;44.816;20.538;2023-05-10T05:38:53;11.90;;;5.68;;
66175;SDS011;52977;44.816;20.538;2023-05-10T05:41:19;10.05;;;5.68;;
66175;SDS011;52977;44.816;20.538;2023-05-10T05:43:47;9.85;;;5.47;;
66175;SDS011;52977;44.816;20.538;2023-05-10T05:46:13;13.57;;;6.07;;
66175;SDS011;52977;44.816;20.538;2023-05-10T05:48:39;10.85;;;5.63;;
66175;SDS011;52977;44.816;20.538;2023-05-10T05:51:05;11.13;;;5.95;;
66175;SDS011;52977;44.816;20.538;2023-05-10T05:53:31;12.30;;;6.38;;
66175;SDS011;52977;44.816;20.538;2023-05-10T05:55:57;9.27;;;5.72;;
66175;SDS011;52977;44.816;20.538;2023-05-10T05:58:24;11.35;;;5.95;;
66175;SDS011;52977;44.816;20.538;2023-05-10T06:00:50;12.38;;;5.72;;
66175;SDS011;52977;44.816;20.538;2023-05-10T06:03:17;11.95;;;6.28;;
66175;SDS011;52977;44.816;20.538;2023-05-10T06:05:43;12.05;;;5.57;;
66175;SDS011;52977;44.816;20.538;2023-05-10T06:08:11;12.65;;;6.15;;
66175;SDS011;52977;44.816;20.538;2023-05-10T06:10:36;14.30;;;6.25;;
66175;SDS011;52977;44.816;20.538;2023-05-10T06:13:02;10.77;;;5.90;;
66175;SDS011;52977;44.816;20.538;2023-05-10T06:15:28;11.15;;;6.13;;
66175;SDS011;52977;44.816;20.538;2023-05-10T06:17:54;10.85;;;5.82;;
66175;SDS011;52977;44.816;20.538;2023-05-10T06:20:19;9.95;;;5.53;;
66175;SDS011;52977;44.816;20.538;2023-05-10T06:22:46;10.35;;;5.20;;
66175;SDS011;52977;44.816;20.538;2023-05-10T06:25:12;9.93;;;5.85;;
66175;SDS011;52977;44.816;20.538;2023-05-10T06:27:39;9.43;;;5.47;;
66175;SDS011;52977;44.816;20.538;2023-05-10T06:30:06;11.43;;;4.97;;
66175;SDS011;52977;44.816;20.538;2023-05-10T06:32:33;12.73;;;5.60;;
66175;SDS011;52977;44.816;20.538;2023-05-10T06:35:00;11.50;;;5.13;;
66175;SDS011;52977;44.816;20.538;2023-05-10T06:37:26;8.77;;;5.30;;
66175;SDS011;52977;44.816;20.538;2023-05-10T06:39:52;12.00;;;5.70;;
66175;SDS011;52977;44.816;20.538;2023-05-10T06:42:18;10.35;;;5.43;;
66175;SDS011;52977;44.816;20.538;2023-05-10T06:44:45;14.13;;;5.68;;
66175;SDS011;52977;44.816;20.538;2023-05-10T06:47:12;14.18;;;5.55;;
66175;SDS011;52977;44.816;20.538;2023-05-10T06:49:38;9.68;;;5.10;;
66175;SDS011;52977;44.816;20.538;2023-05-10T06:52:04;8.35;;;5.25;;
66175;SDS011;52977;44.816;20.538;2023-05-10T06:54:30;10.38;;;4.93;;
66175;SDS011;52977;44.816;20.538;2023-05-10T06:56:56;10.68;;;5.55;;
66175;SDS011;52977;44.816;20.538;2023-05-10T06:59:23;9.73;;;5.78;;
66175;SDS011;52977;44.816;20.538;2023-05-10T07:01:49;10.40;;;5.28;;
66175;SDS011;52977;44.816;20.538;2023-05-10T07:04:16;11.00;;;5.22;;
66175;SDS011;52977;44.816;20.538;2023-05-10T07:06:43;14.50;;;6.22;;
66175;SDS011;52977;44.816;20.538;2023-05-10T07:09:12;11.02;;;5.50;;
66175;SDS011;52977;44.816;20.538;2023-05-10T07:11:39;11.68;;;5.50;;
66175;SDS011;52977;44.816;20.538;2023-05-10T07:14:05;12.38;;;5.55;;
66175;SDS011;52977;44.816;20.538;2023-05-10T07:16:31;10.23;;;5.65;;
66175;SDS011;52977;44.816;20.538;2023-05-10T07:18:57;9.98;;;5.85;;
66175;SDS011;52977;44.816;20.538;2023-05-10T07:21:24;11.98;;;5.78;;
66175;SDS011;52977;44.816;20.538;2023-05-10T07:23:50;11.18;;;5.93;;
66175;SDS011;52977;44.816;20.538;2023-05-10T07:26:17;10.25;;;5.53;;
66175;SDS011;52977;44.816;20.538;2023-05-10T07:28:44;11.80;;;5.85;;
66175;SDS011;52977;44.816;20.538;2023-05-10T07:31:10;10.38;;;5.80;;
66175;SDS011;52977;44.816;20.538;2023-05-10T07:33:36;10.65;;;5.60;;
66175;SDS011;52977;44.816;20.538;2023-05-10T07:36:02;10.32;;;5.70;;
66175;SDS011;52977;44.816;20.538;2023-05-10T07:38:28;11.00;;;5.68;;
66175;SDS011;52977;44.816;20.538;2023-05-10T07:40:55;12.32;;;6.28;;
66175;SDS011;52977;44.816;20.538;2023-05-10T07:43:21;11.48;;;6.55;;
66175;SDS011;52977;44.816;20.538;2023-05-10T07:45:47;11.48;;;5.97;;
66175;SDS011;52977;44.816;20.538;2023-05-10T07:48:14;11.40;;;6.20;;
66175;SDS011;52977;44.816;20.538;2023-05-10T07:50:40;11.93;;;5.50;;
66175;SDS011;52977;44.816;20.538;2023-05-10T07:53:06;12.57;;;5.97;;
66175;SDS011;52977;44.816;20.538;2023-05-10T07:55:33;12.82;;;5.75;;
66175;SDS011;52977;44.816;20.538;2023-05-10T07:57:59;10.73;;;5.65;;
66175;SDS011;52977;44.816;20.538;2023-05-10T08:00:26;12.20;;;6.00;;
66175;SDS011;52977;44.816;20.538;2023-05-10T08:02:53;30.73;;;6.57;;
66175;SDS011;52977;44.816;20.538;2023-05-10T08:05:19;11.77;;;6.20;;
66175;SDS011;52977;44.816;20.538;2023-05-10T08:07:45;12.05;;;5.80;;
66175;SDS011;52977;44.816;20.538;2023-05-10T08:10:11;9.05;;;5.35;;
66175;SDS011;52977;44.816;20.538;2023-05-10T08:12:38;9.95;;;5.38;;
66175;SDS011;52977;44.816;20.538;2023-05-10T08:15:04;9.20;;;4.78;;
66175;SDS011;52977;44.816;20.538;2023-05-10T08:17:31;10.93;;;5.05;;
66175;SDS011;52977;44.816;20.538;2023-05-10T08:19:57;11.50;;;5.75;;
66175;SDS011;52977;44.816;20.538;2023-05-10T08:22:23;9.32;;;5.10;;
66175;SDS011;52977;44.816;20.538;2023-05-10T08:24:50;8.43;;;4.80;;
66175;SDS011;52977;44.816;20.538;2023-05-10T08:27:16;8.68;;;4.78;;
66175;SDS011;52977;44.816;20.538;2023-05-10T08:29:42;10.65;;;4.68;;
66175;SDS011;52977;44.816;20.538;2023-05-10T08:32:08;9.48;;;4.70;;
66175;SDS011;52977;44.816;20.538;2023-05-10T08:34:35;8.40;;;4.55;;
66175;SDS011;52977;44.816;20.538;2023-05-10T08:37:01;7.45;;;4.55;;
66175;SDS011;52977;44.816;20.538;2023-05-10T08:39:27;8.82;;;4.70;;
66175;SDS011;52977;44.816;20.538;2023-05-10T08:41:53;9.38;;;4.60;;
66175;SDS011;52977;44.816;20.538;2023-05-10T08:44:24;10.07;;;4.40;;
66175;SDS011;52977;44.816;20.538;2023-05-10T08:46:50;11.35;;;4.38;;
66175;SDS011;52977;44.816;20.538;2023-05-10T08:49:20;6.55;;;3.70;;
66175;SDS011;52977;44.816;20.538;2023-05-10T08:51:49;7.80;;;4.00;;
66175;SDS011;52977;44.816;20.538;2023-05-10T08:54:18;7.80;;;3.83;;
66175;SDS011;52977;44.816;20.538;2023-05-10T08:56:44;9.55;;;3.65;;
66175;SDS011;52977;44.816;20.538;2023-05-10T08:59:10;7.57;;;3.92;;
66175;SDS011;52977;44.816;20.538;2023-05-10T09:01:38;9.75;;;3.75;;
66175;SDS011;52977;44.816;20.538;2023-05-10T09:04:06;9.13;;;3.58;;
66175;SDS011;52977;44.816;20.538;2023-05-10T09:06:32;8.38;;;4.05;;
66175;SDS011;52977;44.816;20.538;2023-05-10T09:08:59;8.40;;;3.85;;
66175;SDS011;52977;44.816;20.538;2023-05-10T09:11:26;7.03;;;4.15;;
66175;SDS011;52977;44.816;20.538;2023-05-10T09:13:54;6.57;;;3.85;;
66175;SDS011;52977;44.816;20.538;2023-05-10T09:16:22;8.00;;;3.53;;
66175;SDS011;52977;44.816;20.538;2023-05-10T09:18:49;9.07;;;3.80;;
66175;SDS011;52977;44.816;20.538;2023-05-10T09:21:15;6.93;;;4.00;;
66175;SDS011;52977;44.816;20.538;2023-05-10T09:23:45;10.95;;;4.28;;
66175;SDS011;52977;44.816;20.538;2023-05-10T09:26:12;8.75;;;3.45;;
66175;SDS011;52977;44.816;20.538;2023-05-10T09:28:51;8.55;;;3.92;;
66175;SDS011;52977;44.816;20.538;2023-05-10T09:31:18;7.03;;;3.70;;
66175;SDS011;52977;44.816;20.538;2023-05-10T09:33:46;12.88;;;4.13;;
66175;SDS011;52977;44.816;20.538;2023-05-10T09:36:14;6.18;;;3.38;;
66175;SDS011;52977;44.816;20.538;2023-05-10T09:38:47;6.70;;;3.53;;
66175;SDS011;52977;44.816;20.538;2023-05-10T09:41:16;5.95;;;3.65;;
66175;SDS011;52977;44.816;20.538;2023-05-10T09:43:45;7.43;;;3.78;;
66175;SDS011;52977;44.816;20.538;2023-05-10T09:46:12;6.05;;;3.78;;
66175;SDS011;52977;44.816;20.538;2023-05-10T09:48:45;7.03;;;3.10;;
66175;SDS011;52977;44.816;20.538;2023-05-10T09:54:11;4.95;;;2.65;;
66175;SDS011;52977;44.816;20.538;2023-05-10T09:56:41;6.82;;;3.60;;
66175;SDS011;52977;44.816;20.538;2023-05-10T09:59:11;10.85;;;3.40;;
66175;SDS011;52977;44.816;20.538;2023-05-10T10:01:38;6.05;;;2.70;;
66175;SDS011;52977;44.816;20.538;2023-05-10T10:04:05;5.18;;;3.00;;
66175;SDS011;52977;44.816;20.538;2023-05-10T10:06:36;6.07;;;2.80;;
66175;SDS011;52977;44.816;20.538;2023-05-10T10:09:03;7.68;;;3.25;;
66175;SDS011;52977;44.816;20.538;2023-05-10T10:11:29;6.93;;;3.17;;
66175;SDS011;52977;44.816;20.538;2023-05-10T10:13:56;7.75;;;3.42;;
66175;SDS011;52977;44.816;20.538;2023-05-10T10:16:22;6.57;;;3.90;;
66175;SDS011;52977;44.816;20.538;2023-05-10T10:18:49;7.22;;;3.33;;
66175;SDS011;52977;44.816;20.538;2023-05-10T10:21:15;4.22;;;2.70;;
66175;SDS011;52977;44.816;20.538;2023-05-10T10:23:42;5.25;;;3.10;;
66175;SDS011;52977;44.816;20.538;2023-05-10T10:26:09;5.43;;;2.97;;
66175;SDS011;52977;44.816;20.538;2023-05-10T10:31:31;9.60;;;2.70;;
66175;SDS011;52977;44.816;20.538;2023-05-10T10:34:08;7.22;;;3.00;;
66175;SDS011;52977;44.816;20.538;2023-05-10T10:36:40;6.93;;;2.70;;
66175;SDS011;52977;44.816;20.538;2023-05-10T10:39:09;5.38;;;3.03;;
66175;SDS011;52977;44.816;20.538;2023-05-10T10:41:40;4.88;;;3.08;;
66175;SDS011;52977;44.816;20.538;2023-05-10T10:44:33;8.73;;;2.80;;
66175;SDS011;52977;44.816;20.538;2023-05-10T10:47:10;4.90;;;2.63;;
66175;SDS011;52977;44.816;20.538;2023-05-10T10:50:03;4.38;;;2.70;;
66175;SDS011;52977;44.816;20.538;2023-05-10T10:52:40;8.25;;;3.25;;
66175;SDS011;52977;44.816;20.538;2023-05-10T10:55:13;5.30;;;2.80;;
66175;SDS011;52977;44.816;20.538;2023-05-10T10:57:57;7.75;;;2.58;;
66175;SDS011;52977;44.816;20.538;2023-05-10T11:00:26;7.03;;;2.97;;
66175;SDS011;52977;44.816;20.538;2023-05-10T11:03:00;6.07;;;2.60;;
66175;SDS011;52977;44.816;20.538;2023-05-10T11:05:46;5.43;;;2.58;;
66175;SDS011;52977;44.816;20.538;2023-05-10T11:08:13;6.00;;;2.33;;
66175;SDS011;52977;44.816;20.538;2023-05-10T11:10:53;11.77;;;2.88;;
66175;SDS011;52977;44.816;20.538;2023-05-10T11:13:32;4.13;;;2.28;;
66175;SDS011;52977;44.816;20.538;2023-05-10T11:16:18;4.55;;;2.75;;
66175;SDS011;52977;44.816;20.538;2023-05-10T11:21:29;4.00;;;2.30;;
66175;SDS011;52977;44.816;20.538;2023-05-10T11:23:56;4.68;;;2.63;;
66175;SDS011;52977;44.816;20.538;2023-05-10T11:26:34;4.40;;;2.47;;
66175;SDS011;52977;44.816;20.538;2023-05-10T11:29:00;8.90;;;2.95;;
66175;SDS011;52977;44.816;20.538;2023-05-10T11:31:27;4.43;;;2.60;;
66175;SDS011;52977;44.816;20.538;2023-05-10T11:33:55;5.07;;;2.78;;
66175;SDS011;52977;44.816;20.538;2023-05-10T11:36:25;5.20;;;2.53;;
66175;SDS011;52977;44.816;20.538;2023-05-10T11:38:52;7.07;;;2.60;;
66175;SDS011;52977;44.816;20.538;2023-05-10T11:41:19;7.57;;;2.45;;
66175;SDS011;52977;44.816;20.538;2023-05-10T11:43:47;7.80;;;2.70;;
66175;SDS011;52977;44.816;20.538;2023-05-10T11:48:45;5.00;;;2.80;;
66175;SDS011;52977;44.816;20.538;2023-05-10T11:51:19;5.65;;;2.30;;
66175;SDS011;52977;44.816;20.538;2023-05-10T11:53:52;8.52;;;2.97;;
66175;SDS011;52977;44.816;20.538;2023-05-10T11:56:20;5.47;;;2.00;;
66175;SDS011;52977;44.816;20.538;2023-05-10T11:58:51;5.15;;;2.58;;
66175;SDS011;52977;44.816;20.538;2023-05-10T12:01:18;4.78;;;2.20;;
66175;SDS011;52977;44.816;20.538;2023-05-10T12:03:44;6.47;;;2.30;;
66175;SDS011;52977;44.816;20.538;2023-05-10T12:06:10;4.55;;;2.10;;
66175;SDS011;52977;44.816;20.538;2023-05-10T12:08:35;4.18;;;2.30;;
66175;SDS011;52977;44.816;20.538;2023-05-10T12:11:05;6.95;;;2.40;;
66175;SDS011;52977;44.816;20.538;2023-05-10T12:13:40;7.10;;;2.17;;
66175;SDS011;52977;44.816;20.538;2023-05-10T12:16:18;8.93;;;2.53;;
66175;SDS011;52977;44.816;20.538;2023-05-10T12:18:49;5.70;;;2.10;;
66175;SDS011;52977;44.816;20.538;2023-05-10T12:21:20;5.85;;;2.60;;
66175;SDS011;52977;44.816;20.538;2023-05-10T12:23:47;5.53;;;2.30;;
66175;SDS011;52977;44.816;20.538;2023-05-10T12:26:15;4.55;;;1.77;;
66175;SDS011;52977;44.816;20.538;2023-05-10T12:28:41;5.20;;;2.20;;
66175;SDS011;52977;44.816;20.538;2023-05-10T12:31:06;4.57;;;2.22;;
66175;SDS011;52977;44.816;20.538;2023-05-10T12:33:37;6.47;;;2.05;;
66175;SDS011;52977;44.816;20.538;2023-05-10T12:36:05;18.50;;;2.90;;
66175;SDS011;52977;44.816;20.538;2023-05-10T12:38:35;5.25;;;2.45;;
66175;SDS011;52977;44.816;20.538;2023-05-10T12:41:08;5.43;;;2.78;;
66175;SDS011;52977;44.816;20.538;2023-05-10T12:43:35;4.93;;;2.47;;
66175;SDS011;52977;44.816;20.538;2023-05-10T12:46:05;5.07;;;2.50;;
66175;SDS011;52977;44.816;20.538;2023-05-10T12:48:31;8.45;;;2.35;;
66175;SDS011;52977;44.816;20.538;2023-05-10T12:50:59;5.13;;;2.20;;
66175;SDS011;52977;44.816;20.538;2023-05-10T12:53:26;6.38;;;2.42;;
66175;SDS011;52977;44.816;20.538;2023-05-10T12:55:53;7.95;;;2.25;;
66175;SDS011;52977;44.816;20.538;2023-05-10T12:58:19;8.18;;;2.40;;
66175;SDS011;52977;44.816;20.538;2023-05-10T13:00:45;4.97;;;2.20;;
66175;SDS011;52977;44.816;20.538;2023-05-10T13:03:12;6.35;;;2.53;;
66175;SDS011;52977;44.816;20.538;2023-05-10T13:05:37;5.53;;;2.10;;
66175;SDS011;52977;44.816;20.538;2023-05-10T13:08:03;7.55;;;2.40;;
66175;SDS011;52977;44.816;20.538;2023-05-10T13:10:29;5.05;;;2.15;;
66175;SDS011;52977;44.816;20.538;2023-05-10T13:12:56;3.75;;;1.98;;
66175;SDS011;52977;44.816;20.538;2023-05-10T13:15:22;6.68;;;2.00;;
66175;SDS011;52977;44.816;20.538;2023-05-10T13:17:47;3.90;;;2.10;;
66175;SDS011;52977;44.816;20.538;2023-05-10T13:20:13;4.63;;;2.47;;
66175;SDS011;52977;44.816;20.538;2023-05-10T13:22:40;3.33;;;1.92;;
66175;SDS011;52977;44.816;20.538;2023-05-10T13:25:07;5.35;;;2.10;;
66175;SDS011;52977;44.816;20.538;2023-05-10T13:27:33;2.92;;;1.90;;
66175;SDS011;52977;44.816;20.538;2023-05-10T13:29:58;4.03;;;2.17;;
66175;SDS011;52977;44.816;20.538;2023-05-10T13:32:25;4.28;;;2.08;;
66175;SDS011;52977;44.816;20.538;2023-05-10T13:34:51;5.53;;;2.25;;
66175;SDS011;52977;44.816;20.538;2023-05-10T13:37:17;6.47;;;2.88;;
66175;SDS011;52977;44.816;20.538;2023-05-10T13:39:43;4.32;;;2.10;;
66175;SDS011;52977;44.816;20.538;2023-05-10T13:42:09;5.43;;;2.10;;
66175;SDS011;52977;44.816;20.538;2023-05-10T13:44:36;6.45;;;1.95;;
66175;SDS011;52977;44.816;20.538;2023-05-10T13:47:04;5.35;;;2.22;;
66175;SDS011;52977;44.816;20.538;2023-05-10T13:49:30;4.60;;;2.08;;
66175;SDS011;52977;44.816;20.538;2023-05-10T13:51:55;3.70;;;2.05;;
66175;SDS011;52977;44.816;20.538;2023-05-10T13:54:21;5.15;;;2.28;;
66175;SDS011;52977;44.816;20.538;2023-05-10T13:56:47;5.55;;;2.10;;
66175;SDS011;52977;44.816;20.538;2023-05-10T13:59:13;3.58;;;1.98;;
66175;SDS011;52977;44.816;20.538;2023-05-10T14:01:40;4.50;;;1.95;;
66175;SDS011;52977;44.816;20.538;2023-05-10T14:04:06;4.25;;;1.90;;
66175;SDS011;52977;44.816;20.538;2023-05-10T14:06:36;7.38;;;2.17;;
66175;SDS011;52977;44.816;20.538;2023-05-10T14:09:02;4.05;;;1.75;;
66175;SDS011;52977;44.816;20.538;2023-05-10T14:11:30;3.85;;;1.90;;
66175;SDS011;52977;44.816;20.538;2023-05-10T14:13:56;4.07;;;2.00;;
66175;SDS011;52977;44.816;20.538;2023-05-10T14:16:22;3.20;;;1.70;;
66175;SDS011;52977;44.816;20.538;2023-05-10T14:18:48;4.13;;;2.10;;
66175;SDS011;52977;44.816;20.538;2023-05-10T14:21:14;4.53;;;2.08;;
66175;SDS011;52977;44.816;20.538;2023-05-10T14:23:41;6.85;;;2.38;;
66175;SDS011;52977;44.816;20.538;2023-05-10T14:26:06;3.58;;;1.90;;
66175;SDS011;52977;44.816;20.538;2023-05-10T14:28:33;3.83;;;1.80;;
66175;SDS011;52977;44.816;20.538;2023-05-10T14:30:59;3.30;;;1.95;;
66175;SDS011;52977;44.816;20.538;2023-05-10T14:33:25;5.50;;;1.85;;
66175;SDS011;52977;44.816;20.538;2023-05-10T14:35:51;6.53;;;1.92;;
66175;SDS011;52977;44.816;20.538;2023-05-10T14:38:19;4.63;;;2.03;;
66175;SDS011;52977;44.816;20.538;2023-05-10T14:40:44;4.07;;;1.80;;
66175;SDS011;52977;44.816;20.538;2023-05-10T14:43:10;3.50;;;1.80;;
66175;SDS011;52977;44.816;20.538;2023-05-10T14:45:35;3.90;;;2.00;;
66175;SDS011;52977;44.816;20.538;2023-05-10T14:48:01;4.82;;;2.00;;
66175;SDS011;52977;44.816;20.538;2023-05-10T14:50:30;3.88;;;1.70;;
66175;SDS011;52977;44.816;20.538;2023-05-10T14:52:56;3.72;;;1.80;;
66175;SDS011;52977;44.816;20.538;2023-05-10T14:55:23;3.30;;;1.75;;
66175;SDS011;52977;44.816;20.538;2023-05-10T14:57:48;3.53;;;1.95;;
66175;SDS011;52977;44.816;20.538;2023-05-10T15:00:15;5.03;;;2.20;;
66175;SDS011;52977;44.816;20.538;2023-05-10T15:02:42;10.90;;;2.40;;
66175;SDS011;52977;44.816;20.538;2023-05-10T15:05:07;3.75;;;1.80;;
66175;SDS011;52977;44.816;20.538;2023-05-10T15:07:33;3.60;;;1.77;;